createdAt,value
2018-09-18T00:00:38.132Z,0.00
2018-09-18T00:01:38.118Z,0.00
2018-09-18T00:02:38.107Z,0.00
2018-09-18T00:03:38.097Z,0.00
2018-09-18T00:04:38.113Z,0.00
2018-09-18T00:05:38.080Z,0.00
2018-09-18T00:06:38.061Z,0.00
2018-09-18T00:07:38.054Z,0.00
2018-09-18T00:08:38.041Z,0.00
2018-09-18T00:09:38.055Z,0.00
2018-09-18T00:10:38.018Z,0.00
2018-09-18T00:11:38.012Z,0.00
2018-09-18T00:12:37.994Z,0.00
2018-09-18T00:13:37.988Z,0.00
2018-09-18T00:14:37.998Z,0.00
2018-09-18T00:15:37.962Z,0.00
2018-09-18T00:16:37.949Z,0.00
2018-09-18T00:17:37.946Z,0.00
2018-09-18T00:18:37.926Z,0.00
2018-09-18T00:19:37.940Z,0.00
2018-09-18T00:20:37.905Z,0.00
2018-09-18T00:21:37.893Z,0.00
2018-09-18T00:22:37.882Z,0.00
2018-09-18T00:23:37.878Z,0.00
2018-09-18T00:24:37.883Z,0.00
2018-09-18T00:25:37.847Z,0.00
2018-09-18T00:26:37.836Z,0.00
2018-09-18T00:27:37.826Z,0.00
2018-09-18T00:28:37.814Z,0.00
2018-09-18T00:29:37.831Z,0.00
2018-09-18T00:30:37.791Z,0.00
2018-09-18T00:31:37.781Z,0.00
2018-09-18T00:32:37.770Z,0.00
2018-09-18T00:33:37.759Z,0.00
2018-09-18T00:34:37.772Z,0.00
2018-09-18T00:35:37.748Z,0.00
2018-09-18T00:36:37.726Z,0.00
2018-09-18T00:37:37.714Z,0.00
2018-09-18T00:38:37.704Z,0.00
2018-09-18T00:39:37.717Z,0.00
2018-09-18T00:40:37.681Z,0.00
2018-09-18T00:41:37.676Z,0.00
2018-09-18T00:42:37.656Z,0.00
2018-09-18T00:43:37.644Z,0.00
2018-09-18T00:44:37.657Z,0.00
2018-09-18T00:45:37.627Z,0.00
2018-09-18T00:46:37.617Z,0.00
2018-09-18T00:47:37.602Z,0.00
2018-09-18T00:48:37.593Z,0.00
2018-09-18T00:49:37.601Z,0.00
2018-09-18T00:50:37.570Z,0.00
2018-09-18T00:51:37.555Z,0.00
2018-09-18T00:52:37.543Z,0.00
2018-09-18T00:53:37.533Z,0.00
2018-09-18T00:54:37.558Z,0.00
2018-09-18T00:55:37.510Z,0.00
2018-09-18T00:56:37.501Z,0.00
2018-09-18T00:57:37.486Z,0.00
2018-09-18T00:58:37.475Z,0.00
2018-09-18T00:59:37.491Z,0.00
2018-09-18T01:00:37.465Z,0.00
2018-09-18T01:01:37.442Z,0.00
2018-09-18T01:02:37.430Z,0.00
2018-09-18T01:03:37.418Z,0.00
2018-09-18T01:04:37.438Z,0.00
2018-09-18T01:05:37.403Z,0.00
2018-09-18T01:06:37.391Z,0.00
2018-09-18T01:07:37.374Z,0.00
2018-09-18T01:08:37.362Z,0.00
2018-09-18T01:09:37.374Z,0.00
2018-09-18T01:10:37.341Z,0.00
2018-09-18T01:11:37.330Z,0.00
2018-09-18T01:12:37.323Z,0.00
2018-09-18T01:13:37.307Z,0.00
2018-09-18T01:14:37.323Z,0.00
2018-09-18T01:15:37.284Z,0.00
2018-09-18T01:16:37.272Z,0.00
2018-09-18T01:17:37.263Z,0.00
2018-09-18T01:18:37.261Z,0.00
2018-09-18T01:19:37.264Z,0.00
2018-09-18T01:20:37.227Z,0.00
2018-09-18T01:21:37.216Z,0.00
2018-09-18T01:22:37.206Z,0.00
2018-09-18T01:23:37.195Z,0.00
2018-09-18T01:24:37.210Z,0.00
2018-09-18T01:25:37.172Z,0.00
2018-09-18T01:26:37.167Z,0.00
2018-09-18T01:27:37.147Z,0.00
2018-09-18T01:28:37.135Z,0.00
2018-09-18T01:29:37.149Z,0.00
2018-09-18T01:30:37.118Z,0.00
2018-09-18T01:31:37.106Z,0.00
2018-09-18T01:32:37.102Z,0.00
2018-09-18T01:33:37.089Z,0.00
2018-09-18T01:34:37.073Z,0.00
2018-09-18T01:35:37.081Z,0.00
2018-09-18T01:36:37.054Z,0.00
2018-09-18T01:37:37.037Z,0.00
2018-09-18T01:38:37.024Z,0.00
2018-09-18T01:39:37.022Z,0.00
2018-09-18T01:40:37.027Z,0.00
2018-09-18T01:41:36.996Z,0.00
2018-09-18T01:42:36.982Z,0.00
2018-09-18T01:43:36.997Z,0.00
2018-09-18T01:44:36.970Z,0.00
2018-09-18T01:45:36.970Z,0.00
2018-09-18T01:46:36.936Z,0.00
2018-09-18T01:47:36.922Z,0.00
2018-09-18T01:48:36.914Z,0.00
2018-09-18T01:49:36.902Z,0.00
2018-09-18T01:50:36.917Z,0.00
2018-09-18T01:51:36.881Z,0.00
2018-09-18T01:52:36.871Z,0.00
2018-09-18T01:53:36.854Z,0.00
2018-09-18T01:54:36.848Z,0.00
2018-09-18T01:55:36.857Z,0.00
2018-09-18T01:56:36.822Z,0.00
2018-09-18T01:57:36.809Z,0.00
2018-09-18T01:58:36.814Z,0.00
2018-09-18T01:59:36.788Z,0.00
2018-09-18T02:00:36.801Z,0.00
2018-09-18T02:01:36.764Z,0.00
2018-09-18T02:02:36.752Z,0.00
2018-09-18T02:03:36.741Z,0.00
2018-09-18T02:04:36.730Z,0.00
2018-09-18T02:05:36.753Z,0.00
2018-09-18T02:06:36.711Z,0.00
2018-09-18T02:07:36.696Z,0.00
2018-09-18T02:08:36.685Z,0.00
2018-09-18T02:09:36.680Z,0.00
2018-09-18T02:10:36.689Z,0.00
2018-09-18T02:11:36.653Z,0.00
2018-09-18T02:12:36.644Z,0.00
2018-09-18T02:13:36.633Z,0.00
2018-09-18T02:14:36.620Z,0.00
2018-09-18T02:15:36.631Z,0.00
2018-09-18T02:16:36.598Z,0.00
2018-09-18T02:17:36.584Z,0.00
2018-09-18T02:18:36.572Z,0.00
2018-09-18T02:19:36.571Z,0.00
2018-09-18T02:20:36.575Z,0.00
2018-09-18T02:21:36.539Z,0.00
2018-09-18T02:22:36.533Z,0.00
2018-09-18T02:23:36.520Z,0.00
2018-09-18T02:24:36.511Z,0.00
2018-09-18T02:25:36.520Z,0.00
2018-09-18T02:26:36.481Z,0.00
2018-09-18T02:27:36.486Z,0.00
2018-09-18T02:28:36.461Z,0.00
2018-09-18T02:29:36.447Z,0.00
2018-09-18T02:30:36.461Z,0.00
2018-09-18T02:31:36.430Z,0.00
2018-09-18T02:32:36.418Z,0.00
2018-09-18T02:33:36.405Z,0.00
2018-09-18T02:34:36.393Z,0.00
2018-09-18T02:35:36.408Z,0.00
2018-09-18T02:36:36.369Z,0.00
2018-09-18T02:37:36.360Z,0.00
2018-09-18T02:38:36.365Z,0.00
2018-09-18T02:39:36.334Z,0.00
2018-09-18T02:40:36.346Z,0.00
2018-09-18T02:41:36.310Z,0.00
2018-09-18T02:42:36.303Z,0.00
2018-09-18T02:43:36.291Z,0.00
2018-09-18T02:44:36.290Z,0.00
2018-09-18T02:45:36.291Z,0.00
2018-09-18T02:46:36.257Z,0.00
2018-09-18T02:47:36.249Z,0.00
2018-09-18T02:48:36.232Z,0.00
2018-09-18T02:49:36.221Z,0.00
2018-09-18T02:50:36.232Z,0.00
2018-09-18T02:51:36.202Z,0.00
2018-09-18T02:52:36.188Z,0.00
2018-09-18T02:53:36.188Z,0.00
2018-09-18T02:54:36.164Z,0.00
2018-09-18T02:55:36.181Z,0.00
2018-09-18T02:56:36.142Z,0.00
2018-09-18T02:57:36.130Z,0.00
2018-09-18T02:58:36.121Z,0.00
2018-09-18T02:59:36.112Z,0.00
2018-09-18T03:00:36.120Z,0.00
2018-09-18T03:01:36.092Z,0.00
2018-09-18T03:02:36.073Z,0.00
2018-09-18T03:03:36.074Z,0.00
2018-09-18T03:04:36.054Z,0.00
2018-09-18T03:05:36.064Z,0.00
2018-09-18T03:06:36.033Z,0.00
2018-09-18T03:07:36.025Z,0.00
2018-09-18T03:08:36.008Z,0.00
2018-09-18T03:09:35.996Z,0.00
2018-09-18T03:10:35.986Z,0.00
2018-09-18T03:11:36.012Z,0.00
2018-09-18T03:12:35.963Z,0.00
2018-09-18T03:13:35.955Z,0.00
2018-09-18T03:14:35.942Z,0.00
2018-09-18T03:15:35.951Z,0.00
2018-09-18T03:16:35.917Z,0.00
2018-09-18T03:17:35.907Z,0.00
2018-09-18T03:18:35.906Z,0.00
2018-09-18T03:19:35.885Z,0.00
2018-09-18T03:20:35.877Z,0.00
2018-09-18T03:21:35.881Z,0.00
2018-09-18T03:22:35.853Z,0.00
2018-09-18T03:23:35.842Z,0.00
2018-09-18T03:24:35.825Z,0.00
2018-09-18T03:25:35.817Z,0.00
2018-09-18T03:26:35.832Z,0.00
2018-09-18T03:27:35.795Z,0.00
2018-09-18T03:28:35.787Z,0.00
2018-09-18T03:29:35.768Z,0.00
2018-09-18T03:30:35.763Z,0.00
2018-09-18T03:31:35.773Z,0.00
2018-09-18T03:32:35.741Z,0.00
2018-09-18T03:33:35.725Z,0.00
2018-09-18T03:34:35.711Z,0.00
2018-09-18T03:35:35.756Z,0.00
2018-09-18T03:36:35.716Z,0.00
2018-09-18T03:37:35.694Z,0.00
2018-09-18T03:38:35.671Z,0.00
2018-09-18T03:39:35.658Z,0.00
2018-09-18T03:40:35.642Z,0.00
2018-09-18T03:41:35.656Z,0.00
2018-09-18T03:42:35.652Z,0.00
2018-09-18T03:43:35.612Z,0.00
2018-09-18T03:44:35.597Z,0.00
2018-09-18T03:45:35.594Z,0.00
2018-09-18T03:46:35.609Z,0.00
2018-09-18T03:47:35.568Z,0.00
2018-09-18T03:48:35.556Z,0.00
2018-09-18T03:49:35.550Z,0.00
2018-09-18T03:50:35.532Z,0.00
2018-09-18T03:51:35.551Z,0.00
2018-09-18T03:52:35.509Z,0.00
2018-09-18T03:53:35.503Z,0.00
2018-09-18T03:54:35.490Z,0.00
2018-09-18T03:55:35.476Z,0.00
2018-09-18T03:56:35.488Z,0.00
2018-09-18T03:57:35.454Z,0.00
2018-09-18T03:58:35.444Z,0.00
2018-09-18T03:59:35.433Z,0.00
2018-09-18T04:00:35.421Z,0.00
2018-09-18T04:01:35.428Z,0.00
2018-09-18T04:02:35.398Z,0.00
2018-09-18T04:03:35.390Z,0.00
2018-09-18T04:04:35.375Z,0.00
2018-09-18T04:05:35.363Z,0.00
2018-09-18T04:06:35.373Z,0.00
2018-09-18T04:07:35.339Z,0.00
2018-09-18T04:08:35.326Z,0.00
2018-09-18T04:09:35.329Z,0.00
2018-09-18T04:10:35.310Z,0.00
2018-09-18T04:11:35.324Z,0.00
2018-09-18T04:12:35.281Z,0.00
2018-09-18T04:13:35.271Z,0.00
2018-09-18T04:14:35.261Z,0.00
2018-09-18T04:15:35.262Z,0.00
2018-09-18T04:16:35.264Z,0.00
2018-09-18T04:17:35.229Z,0.00
2018-09-18T04:18:35.214Z,0.00
2018-09-18T04:19:35.204Z,0.00
2018-09-18T04:20:35.198Z,0.00
2018-09-18T04:21:35.206Z,0.00
2018-09-18T04:22:35.180Z,0.00
2018-09-18T04:23:35.160Z,0.00
2018-09-18T04:24:35.150Z,0.00
2018-09-18T04:25:35.141Z,0.00
2018-09-18T04:26:35.148Z,0.00
2018-09-18T04:27:35.112Z,0.00
2018-09-18T04:28:35.100Z,0.00
2018-09-18T04:29:35.098Z,0.00
2018-09-18T04:30:35.083Z,0.00
2018-09-18T04:31:35.095Z,0.00
2018-09-18T04:32:35.056Z,0.00
2018-09-18T04:33:35.048Z,0.00
2018-09-18T04:34:35.038Z,0.00
2018-09-18T04:35:35.023Z,0.00
2018-09-18T04:36:35.037Z,0.00
2018-09-18T04:37:34.998Z,0.00
2018-09-18T04:38:35.000Z,0.00
2018-09-18T04:39:34.977Z,0.00
2018-09-18T04:40:34.965Z,0.00
2018-09-18T04:41:34.981Z,0.00
2018-09-18T04:42:34.942Z,0.00
2018-09-18T04:43:34.939Z,0.00
2018-09-18T04:44:34.921Z,0.00
2018-09-18T04:45:34.910Z,0.00
2018-09-18T04:46:34.922Z,0.00
2018-09-18T04:47:34.886Z,0.00
2018-09-18T04:48:34.876Z,0.00
2018-09-18T04:49:34.870Z,0.00
2018-09-18T04:50:34.857Z,0.00
2018-09-18T04:51:34.868Z,0.00
2018-09-18T04:52:34.845Z,0.00
2018-09-18T04:53:34.822Z,0.00
2018-09-18T04:54:34.809Z,0.00
2018-09-18T04:55:34.807Z,0.00
2018-09-18T04:56:34.788Z,0.00
2018-09-18T04:57:34.798Z,0.00
2018-09-18T04:58:34.763Z,0.00
2018-09-18T04:59:34.756Z,0.00
2018-09-18T05:00:34.739Z,0.00
2018-09-18T05:01:34.734Z,0.00
2018-09-18T05:02:34.742Z,0.00
2018-09-18T05:03:34.716Z,0.00
2018-09-18T05:04:34.695Z,0.00
2018-09-18T05:05:34.690Z,0.00
2018-09-18T05:06:34.677Z,0.00
2018-09-18T05:07:34.685Z,5.62
2018-09-18T05:08:34.657Z,5.62
2018-09-18T05:09:34.639Z,5.62
2018-09-18T05:10:34.633Z,5.62
2018-09-18T05:11:34.622Z,5.62
2018-09-18T05:12:34.628Z,5.62
2018-09-18T05:13:34.618Z,11.25
2018-09-18T05:14:34.583Z,11.25
2018-09-18T05:15:34.571Z,11.25
2018-09-18T05:16:34.562Z,11.25
2018-09-18T05:17:34.572Z,16.88
2018-09-18T05:18:34.539Z,16.88
2018-09-18T05:19:34.533Z,16.88
2018-09-18T05:20:34.514Z,16.88
2018-09-18T05:21:34.505Z,22.50
2018-09-18T05:22:34.532Z,22.50
2018-09-18T05:23:34.485Z,22.50
2018-09-18T05:24:34.468Z,22.50
2018-09-18T05:25:34.476Z,28.12
2018-09-18T05:26:34.446Z,28.12
2018-09-18T05:27:34.460Z,28.12
2018-09-18T05:28:34.427Z,28.12
2018-09-18T05:29:34.410Z,33.75
2018-09-18T05:30:34.407Z,33.75
2018-09-18T05:31:34.394Z,33.75
2018-09-18T05:32:34.404Z,39.38
2018-09-18T05:33:34.393Z,39.38
2018-09-18T05:34:34.359Z,39.38
2018-09-18T05:35:34.343Z,39.38
2018-09-18T05:36:34.334Z,45.00
2018-09-18T05:37:34.358Z,45.00
2018-09-18T05:38:34.324Z,45.00
2018-09-18T05:39:34.299Z,45.00
2018-09-18T05:40:34.288Z,50.62
2018-09-18T05:41:34.278Z,50.62
2018-09-18T05:42:34.289Z,50.62
2018-09-18T05:43:34.254Z,56.25
2018-09-18T05:44:34.249Z,56.25
2018-09-18T05:45:34.237Z,56.25
2018-09-18T05:46:34.227Z,61.88
2018-09-18T05:47:34.235Z,61.88
2018-09-18T05:48:34.197Z,61.88
2018-09-18T05:49:34.185Z,67.50
2018-09-18T05:50:34.174Z,67.50
2018-09-18T05:51:34.171Z,67.50
2018-09-18T05:52:34.180Z,73.12
2018-09-18T05:53:34.144Z,73.12
2018-09-18T05:54:34.129Z,73.12
2018-09-18T05:55:34.123Z,78.75
2018-09-18T05:56:34.107Z,78.75
2018-09-18T05:57:34.123Z,78.75
2018-09-18T05:58:34.089Z,84.38
2018-09-18T05:59:34.074Z,84.38
2018-09-18T06:00:34.064Z,84.38
2018-09-18T06:01:34.051Z,84.38
2018-09-18T06:02:34.086Z,90.00
2018-09-18T06:03:34.028Z,90.00
2018-09-18T06:04:34.021Z,90.00
2018-09-18T06:05:34.007Z,90.00
2018-09-18T06:06:34.003Z,95.62
2018-09-18T06:07:34.005Z,95.62
2018-09-18T06:08:33.970Z,95.62
2018-09-18T06:09:33.959Z,101.25
2018-09-18T06:10:33.955Z,101.25
2018-09-18T06:11:33.954Z,101.25
2018-09-18T06:12:34.032Z,101.25
2018-09-18T06:13:33.915Z,106.88
2018-09-18T06:14:33.933Z,106.88
2018-09-18T06:15:33.896Z,106.88
2018-09-18T06:16:33.883Z,106.88
2018-09-18T06:17:33.893Z,106.88
2018-09-18T06:18:33.877Z,112.50
2018-09-18T06:19:33.861Z,112.50
2018-09-18T06:20:33.839Z,112.50
2018-09-18T06:21:33.824Z,112.50
2018-09-18T06:22:33.837Z,118.12
2018-09-18T06:23:33.801Z,118.12
2018-09-18T06:24:33.804Z,118.12
2018-09-18T06:25:33.779Z,118.12
2018-09-18T06:26:33.772Z,123.75
2018-09-18T06:27:33.784Z,123.75
2018-09-18T06:28:33.755Z,123.75
2018-09-18T06:29:33.735Z,123.75
2018-09-18T06:30:33.724Z,123.75
2018-09-18T06:31:33.712Z,196.88
2018-09-18T06:32:33.733Z,309.38
2018-09-18T06:33:33.696Z,253.12
2018-09-18T06:34:33.676Z,185.62
2018-09-18T06:35:33.667Z,157.50
2018-09-18T06:36:33.663Z,135.00
2018-09-18T06:37:33.654Z,129.38
2018-09-18T06:38:33.659Z,129.38
2018-09-18T06:39:33.625Z,129.38
2018-09-18T06:40:33.616Z,129.38
2018-09-18T06:41:33.602Z,129.38
2018-09-18T06:42:33.591Z,129.38
2018-09-18T06:43:33.603Z,135.00
2018-09-18T06:44:33.566Z,135.00
2018-09-18T06:45:33.554Z,135.00
2018-09-18T06:46:33.561Z,135.00
2018-09-18T06:47:33.532Z,135.00
2018-09-18T06:48:33.545Z,135.00
2018-09-18T06:49:33.509Z,135.00
2018-09-18T06:50:33.497Z,140.62
2018-09-18T06:51:33.485Z,140.62
2018-09-18T06:52:33.478Z,140.62
2018-09-18T06:53:33.495Z,140.62
2018-09-18T06:54:33.541Z,140.62
2018-09-18T06:55:33.442Z,140.62
2018-09-18T06:56:33.431Z,140.62
2018-09-18T06:57:33.423Z,140.62
2018-09-18T06:58:33.432Z,140.62
2018-09-18T06:59:33.400Z,146.25
2018-09-18T07:00:33.387Z,146.25
2018-09-18T07:01:33.373Z,146.25
2018-09-18T07:02:33.369Z,146.25
2018-09-18T07:03:33.375Z,146.25
2018-09-18T07:04:33.340Z,146.25
2018-09-18T07:05:33.334Z,146.25
2018-09-18T07:06:33.325Z,146.25
2018-09-18T07:07:33.309Z,151.88
2018-09-18T07:08:33.322Z,151.88
2018-09-18T07:09:33.287Z,151.88
2018-09-18T07:10:33.283Z,151.88
2018-09-18T07:11:33.300Z,151.88
2018-09-18T07:12:33.248Z,151.88
2018-09-18T07:13:33.262Z,151.88
2018-09-18T07:14:33.227Z,151.88
2018-09-18T07:15:33.250Z,151.88
2018-09-18T07:16:33.202Z,151.88
2018-09-18T07:17:33.203Z,151.88
2018-09-18T07:18:33.214Z,151.88
2018-09-18T07:19:33.192Z,157.50
2018-09-18T07:20:33.162Z,157.50
2018-09-18T07:21:33.174Z,157.50
2018-09-18T07:22:33.139Z,151.88
2018-09-18T07:23:33.290Z,157.50
2018-09-18T07:24:33.205Z,157.50
2018-09-18T07:25:33.233Z,157.50
2018-09-18T07:26:33.120Z,157.50
2018-09-18T07:27:33.091Z,157.50
2018-09-18T07:28:33.099Z,157.50
2018-09-18T07:29:33.113Z,157.50
2018-09-18T07:30:33.062Z,163.12
2018-09-18T07:31:33.034Z,163.12
2018-09-18T07:32:33.023Z,163.12
2018-09-18T07:33:33.048Z,163.12
2018-09-18T07:34:33.011Z,163.12
2018-09-18T07:35:32.990Z,163.12
2018-09-18T07:36:32.985Z,163.12
2018-09-18T07:37:32.970Z,163.12
2018-09-18T07:38:32.998Z,163.12
2018-09-18T07:39:32.954Z,163.12
2018-09-18T07:40:32.954Z,163.12
2018-09-18T07:41:32.923Z,163.12
2018-09-18T07:42:32.911Z,163.12
2018-09-18T07:43:32.924Z,163.12
2018-09-18T07:44:32.888Z,163.12
2018-09-18T07:45:32.888Z,163.12
2018-09-18T07:46:32.878Z,163.12
2018-09-18T07:47:32.856Z,163.12
2018-09-18T07:48:32.865Z,163.12
2018-09-18T07:49:32.831Z,168.75
2018-09-18T07:50:32.821Z,168.75
2018-09-18T07:51:32.816Z,168.75
2018-09-18T07:52:32.822Z,168.75
2018-09-18T07:53:32.866Z,168.75
2018-09-18T07:54:32.787Z,168.75
2018-09-18T07:55:32.766Z,168.75
2018-09-18T07:56:32.755Z,168.75
2018-09-18T07:57:32.741Z,168.75
2018-09-18T07:58:32.754Z,168.75
2018-09-18T07:59:32.747Z,168.75
2018-09-18T08:00:32.707Z,168.75
2018-09-18T08:01:32.695Z,168.75
2018-09-18T08:02:32.685Z,168.75
2018-09-18T08:03:32.707Z,168.75
2018-09-18T08:04:32.663Z,168.75
2018-09-18T08:05:32.656Z,168.75
2018-09-18T08:06:32.649Z,168.75
2018-09-18T08:07:32.629Z,174.38
2018-09-18T08:08:32.648Z,174.38
2018-09-18T08:09:32.607Z,174.38
2018-09-18T08:10:32.595Z,174.38
2018-09-18T08:11:32.583Z,174.38
2018-09-18T08:12:32.572Z,174.38
2018-09-18T08:13:32.585Z,174.38
2018-09-18T08:14:32.551Z,174.38
2018-09-18T08:15:32.541Z,174.38
2018-09-18T08:16:32.531Z,174.38
2018-09-18T08:17:32.553Z,174.38
2018-09-18T08:18:32.507Z,174.38
2018-09-18T08:19:32.655Z,174.38
2018-09-18T08:20:32.486Z,174.38
2018-09-18T08:21:32.472Z,174.38
2018-09-18T08:22:32.513Z,174.38
2018-09-18T08:23:32.530Z,174.38
2018-09-18T08:24:32.468Z,174.38
2018-09-18T08:25:32.474Z,174.38
2018-09-18T08:26:32.485Z,180.00
2018-09-18T08:27:32.405Z,180.00
2018-09-18T08:28:32.397Z,180.00
2018-09-18T08:29:32.420Z,180.00
2018-09-18T08:30:32.388Z,180.00
2018-09-18T08:31:32.361Z,180.00
2018-09-18T08:32:32.381Z,180.00
2018-09-18T08:33:32.339Z,180.00
2018-09-18T08:34:32.351Z,180.00
2018-09-18T08:35:32.359Z,180.00
2018-09-18T08:36:32.307Z,180.00
2018-09-18T08:37:32.293Z,185.62
2018-09-18T08:38:33.009Z,180.00
2018-09-18T08:39:32.297Z,180.00
2018-09-18T08:40:32.260Z,185.62
2018-09-18T08:41:32.248Z,185.62
2018-09-18T08:42:32.237Z,185.62
2018-09-18T08:43:32.243Z,185.62
2018-09-18T08:44:32.261Z,185.62
2018-09-18T08:45:32.215Z,185.62
2018-09-18T08:46:32.214Z,185.62
2018-09-18T08:47:32.183Z,191.25
2018-09-18T08:48:32.189Z,191.25
2018-09-18T08:49:32.183Z,191.25
2018-09-18T08:50:32.182Z,191.25
2018-09-18T08:51:32.226Z,185.62
2018-09-18T08:52:32.140Z,185.62
2018-09-18T08:53:32.134Z,185.62
2018-09-18T08:54:32.202Z,185.62
2018-09-18T08:55:32.091Z,185.62
2018-09-18T08:56:32.101Z,185.62
2018-09-18T08:57:32.068Z,185.62
2018-09-18T08:58:32.123Z,185.62
2018-09-18T08:59:32.069Z,191.25
2018-09-18T09:00:32.034Z,191.25
2018-09-18T09:01:32.025Z,191.25
2018-09-18T09:02:32.100Z,191.25
2018-09-18T09:03:32.015Z,196.88
2018-09-18T09:04:32.047Z,191.25
2018-09-18T09:05:32.037Z,191.25
2018-09-18T09:06:32.067Z,196.88
2018-09-18T09:07:32.071Z,196.88
2018-09-18T09:08:32.009Z,196.88
2018-09-18T09:09:32.025Z,196.88
2018-09-18T09:10:31.986Z,196.88
2018-09-18T09:11:31.913Z,196.88
2018-09-18T09:12:31.926Z,202.50
2018-09-18T09:13:31.921Z,202.50
2018-09-18T09:14:31.899Z,202.50
2018-09-18T09:15:31.947Z,202.50
2018-09-18T09:16:31.856Z,202.50
2018-09-18T09:17:31.868Z,208.12
2018-09-18T09:18:31.960Z,208.12
2018-09-18T09:19:31.865Z,208.12
2018-09-18T09:20:31.840Z,208.12
2018-09-18T09:21:31.829Z,208.12
2018-09-18T09:22:31.863Z,208.12
2018-09-18T09:23:31.782Z,208.12
2018-09-18T09:24:31.787Z,208.12
2018-09-18T09:25:31.783Z,208.12
2018-09-18T09:26:31.840Z,213.75
2018-09-18T09:27:31.787Z,213.75
2018-09-18T09:28:31.745Z,213.75
2018-09-18T09:29:31.760Z,213.75
2018-09-18T09:30:31.696Z,213.75
2018-09-18T09:31:31.683Z,213.75
2018-09-18T09:32:31.722Z,213.75
2018-09-18T09:33:31.671Z,213.75
2018-09-18T09:34:31.710Z,213.75
2018-09-18T09:35:31.686Z,213.75
2018-09-18T09:36:31.633Z,213.75
2018-09-18T09:37:31.630Z,213.75
2018-09-18T09:38:31.604Z,213.75
2018-09-18T09:39:31.617Z,219.38
2018-09-18T09:40:31.583Z,213.75
2018-09-18T09:41:31.574Z,219.38
2018-09-18T09:42:31.561Z,219.38
2018-09-18T09:43:31.552Z,213.75
2018-09-18T09:44:31.571Z,219.38
2018-09-18T09:45:31.526Z,219.38
2018-09-18T09:46:31.515Z,219.38
2018-09-18T09:47:31.508Z,219.38
2018-09-18T09:48:31.493Z,219.38
2018-09-18T09:49:31.505Z,225.00
2018-09-18T09:50:31.513Z,225.00
2018-09-18T09:51:31.542Z,225.00
2018-09-18T09:52:31.451Z,225.00
2018-09-18T09:53:31.458Z,225.00
2018-09-18T09:54:31.456Z,230.62
2018-09-18T09:55:31.417Z,241.88
2018-09-18T09:56:31.406Z,202.50
2018-09-18T09:57:31.397Z,236.25
2018-09-18T09:58:31.396Z,225.00
2018-09-18T09:59:31.372Z,219.38
2018-09-18T10:00:31.389Z,219.38
2018-09-18T10:01:31.349Z,219.38
2018-09-18T10:02:31.341Z,219.38
2018-09-18T10:03:31.497Z,225.00
2018-09-18T10:04:31.457Z,225.00
2018-09-18T10:05:31.386Z,225.00
2018-09-18T10:06:31.334Z,225.00
2018-09-18T10:07:31.307Z,225.00
2018-09-18T10:08:31.276Z,225.00
2018-09-18T10:09:31.289Z,225.00
2018-09-18T10:10:31.400Z,230.62
2018-09-18T10:11:31.245Z,230.62
2018-09-18T10:12:31.272Z,230.62
2018-09-18T10:13:31.217Z,230.62
2018-09-18T10:14:31.237Z,230.62
2018-09-18T10:15:31.215Z,230.62
2018-09-18T10:16:31.190Z,230.62
2018-09-18T10:17:31.183Z,236.25
2018-09-18T10:18:31.160Z,236.25
2018-09-18T10:19:31.150Z,236.25
2018-09-18T10:20:31.170Z,236.25
2018-09-18T10:21:31.256Z,236.25
2018-09-18T10:22:31.117Z,236.25
2018-09-18T10:23:31.170Z,241.88
2018-09-18T10:24:31.106Z,241.88
2018-09-18T10:25:31.122Z,241.88
2018-09-18T10:26:31.151Z,241.88
2018-09-18T10:27:31.060Z,247.50
2018-09-18T10:28:31.066Z,247.50
2018-09-18T10:29:31.068Z,247.50
2018-09-18T10:30:31.073Z,219.38
2018-09-18T10:31:31.017Z,253.12
2018-09-18T10:32:31.032Z,253.12
2018-09-18T10:33:31.013Z,253.12
2018-09-18T10:34:31.063Z,258.75
2018-09-18T10:35:31.012Z,230.62
2018-09-18T10:36:32.494Z,258.75
2018-09-18T10:37:30.974Z,258.75
2018-09-18T10:38:30.976Z,264.38
2018-09-18T10:39:30.981Z,264.38
2018-09-18T10:40:30.943Z,270.00
2018-09-18T10:41:31.062Z,270.00
2018-09-18T10:42:30.910Z,270.00
2018-09-18T10:43:30.915Z,275.62
2018-09-18T10:44:30.887Z,275.62
2018-09-18T10:45:30.899Z,281.25
2018-09-18T10:46:30.904Z,281.25
2018-09-18T10:47:30.850Z,286.88
2018-09-18T10:48:30.863Z,286.88
2018-09-18T10:49:30.896Z,286.88
2018-09-18T10:50:30.830Z,292.50
2018-09-18T10:51:30.798Z,298.12
2018-09-18T10:52:30.822Z,303.75
2018-09-18T10:53:30.778Z,303.75
2018-09-18T10:54:30.759Z,309.38
2018-09-18T10:55:30.827Z,315.00
2018-09-18T10:56:30.740Z,315.00
2018-09-18T10:57:30.738Z,320.62
2018-09-18T10:58:30.713Z,326.25
2018-09-18T10:59:30.706Z,331.88
2018-09-18T11:00:30.714Z,337.50
2018-09-18T11:01:30.684Z,348.75
2018-09-18T11:02:30.668Z,354.38
2018-09-18T11:03:30.688Z,365.62
2018-09-18T11:04:30.657Z,371.25
2018-09-18T11:05:30.689Z,376.88
2018-09-18T11:06:30.660Z,388.12
2018-09-18T11:07:30.744Z,399.38
2018-09-18T11:08:30.663Z,405.00
2018-09-18T11:09:30.595Z,416.25
2018-09-18T11:10:30.644Z,421.88
2018-09-18T11:11:31.597Z,421.88
2018-09-18T11:12:30.560Z,421.88
2018-09-18T11:13:30.588Z,410.62
2018-09-18T11:14:30.549Z,405.00
2018-09-18T11:15:30.618Z,410.62
2018-09-18T11:16:30.547Z,427.50
2018-09-18T11:17:30.517Z,433.12
2018-09-18T11:18:30.497Z,433.12
2018-09-18T11:19:30.500Z,444.38
2018-09-18T11:20:30.546Z,455.62
2018-09-18T11:21:30.533Z,461.25
2018-09-18T11:22:30.575Z,466.88
2018-09-18T11:23:30.448Z,472.50
2018-09-18T11:24:31.005Z,483.75
2018-09-18T11:25:30.466Z,495.00
2018-09-18T11:26:30.405Z,500.62
2018-09-18T11:27:30.398Z,511.88
2018-09-18T11:28:30.397Z,511.88
2018-09-18T11:29:30.373Z,517.50
2018-09-18T11:30:30.409Z,528.75
2018-09-18T11:31:30.419Z,545.62
2018-09-18T11:32:30.368Z,556.88
2018-09-18T11:33:30.327Z,562.50
2018-09-18T11:34:30.316Z,579.38
2018-09-18T11:35:30.349Z,624.38
2018-09-18T11:36:30.294Z,748.12
2018-09-18T11:37:30.287Z,849.38
2018-09-18T11:38:30.274Z,843.75
2018-09-18T11:39:30.264Z,860.62
2018-09-18T11:40:30.276Z,933.75
2018-09-18T11:41:30.251Z,1350.00
2018-09-18T11:42:30.229Z,1665.00
2018-09-18T11:43:30.283Z,1698.75
2018-09-18T11:44:30.232Z,1833.75
2018-09-18T11:45:30.265Z,1805.62
2018-09-18T11:46:30.221Z,1777.50
2018-09-18T11:47:30.185Z,1906.88
2018-09-18T11:48:30.168Z,1845.00
2018-09-18T11:49:30.155Z,1980.00
2018-09-18T11:50:30.158Z,2070.00
2018-09-18T11:51:30.209Z,2092.50
2018-09-18T11:52:30.126Z,2098.12
2018-09-18T11:53:30.118Z,2182.50
2018-09-18T11:54:30.104Z,2182.50
2018-09-18T11:55:30.106Z,2176.88
2018-09-18T11:56:30.108Z,2221.88
2018-09-18T11:57:30.071Z,2289.38
2018-09-18T11:58:30.148Z,2317.50
2018-09-18T11:59:30.050Z,2311.88
2018-09-18T12:00:30.041Z,2351.25
2018-09-18T12:01:30.062Z,2413.12
2018-09-18T12:02:30.021Z,2463.75
2018-09-18T12:03:30.009Z,2486.25
2018-09-18T12:04:30.052Z,2525.62
2018-09-18T12:05:29.985Z,2604.38
2018-09-18T12:06:29.998Z,2520.00
2018-09-18T12:07:29.963Z,2536.88
2018-09-18T12:08:29.961Z,2413.12
2018-09-18T12:09:29.941Z,2565.00
2018-09-18T12:10:29.932Z,2632.50
2018-09-18T12:11:30.037Z,2581.88
2018-09-18T12:12:30.506Z,2553.75
2018-09-18T12:13:29.900Z,2508.75
2018-09-18T12:14:29.889Z,2604.38
2018-09-18T12:15:29.879Z,2666.25
2018-09-18T12:16:29.893Z,2497.50
2018-09-18T12:17:29.859Z,2520.00
2018-09-18T12:18:29.851Z,2593.12
2018-09-18T12:19:29.839Z,2615.62
2018-09-18T12:20:29.827Z,2756.25
2018-09-18T12:21:29.919Z,2784.38
2018-09-18T12:22:30.009Z,1935.00
2018-09-18T12:23:29.833Z,2401.88
2018-09-18T12:24:29.795Z,1822.50
2018-09-18T12:25:29.828Z,2486.25
2018-09-18T12:26:29.792Z,2317.50
2018-09-18T12:27:29.780Z,3031.88
2018-09-18T12:28:29.804Z,3009.38
2018-09-18T12:29:29.739Z,3009.38
2018-09-18T12:30:29.741Z,2930.62
2018-09-18T12:31:29.740Z,2941.88
2018-09-18T12:32:29.707Z,2823.75
2018-09-18T12:33:29.707Z,2750.62
2018-09-18T12:34:29.689Z,2739.38
2018-09-18T12:35:29.807Z,2660.62
2018-09-18T12:36:29.689Z,2525.62
2018-09-18T12:37:29.658Z,2553.75
2018-09-18T12:38:29.648Z,2536.88
2018-09-18T12:39:29.656Z,753.75
2018-09-18T12:40:29.627Z,483.75
2018-09-18T12:41:29.806Z,1406.25
2018-09-18T12:42:29.720Z,2525.62
2018-09-18T12:43:29.595Z,2857.50
2018-09-18T12:44:29.592Z,2896.88
2018-09-18T12:45:29.607Z,2829.38
2018-09-18T12:46:29.590Z,2750.62
2018-09-18T12:47:29.563Z,2829.38